map of EGYH home
EGYH - Facility
Location
City:  Sutton Bridge, Lincolnshire, England, United Kingdom
Name:Holbeach Range
ICAO:EGYH

Details
Type:Facility
Latitude:5245'N (52.750)
Longitude:012'E (0.200)
Variation:0.12W (WMM2015v2 magnetic declination)
0.19 annual change

Time
Time Zone:UTC+0 (DST+1)
Local Time:

Weather
METAR:EGYH 041350Z 25005KT 9999 BKN015 09/07 Q1014 WHT

Related Locations
Nearby:
Farthest:CHT: 11794 mi / 18980 km
Waitangi [Tuuta], CIT, NZ

Find:

   beyond  
but within

Other Information
Maps:
NOTAMs:
Links:
Sources:

  
  • flag of United Kingdom
  • flag of England
  • flag of Lincolnshire
  

Sectional Chart

Flight Planning
at skyvector.com

Satellite Image

Google Maps Satellite view

 

Copyright © 2004-2019 Karl L. Swartz. All rights reserved.
The Great Circle Mapper name and logo are trademarks of the Great Circle Mapper.
All other trademarks mentioned herein belong to their respective owners.
Please see credits for attibutions and further copyright information.

  Follow gcmap on Facebook Follow gcmap on Twitter GCmap on LinkedIn

hCard Microformat

Geo Microformat